Sawyers Bar, California
Current Conditions -  °F | °C
As of 4:55 AM on Tuesday 21 Oct 2014 (Local Time) from KO86 Reporting Station
Overcast Overcast  
Wind Chill: 45°   Ceiling: 1200
Heat Index: 45°   Visibility: 10mi
Dew Point: 43°   Wind: 0mph
Humidity: 93%   Direction: NA
Pressure: 30.11"   Gusts: NA
Location:  41.4264°N, 123.041°W
Report Text: KO86 211155Z AUTO 00000KT 10SM SCT005 OVC012 07/06 A3011 RMK AO1
Loading
Personal Weather Stations






























Interactive Weather Map
Tropical Storm Tracking
New forecast layout! Learn more

10-Day Weather Forecast

Advertisements
Track Severe Weather on mobile